createdAt,value
2019-05-21T00:02:29.905Z,14.00
2019-05-21T00:05:10.178Z,14.00
2019-05-21T00:07:50.374Z,14.10
2019-05-21T00:10:30.017Z,14.00
2019-05-21T00:13:10.747Z,14.00
2019-05-21T00:15:50.808Z,14.10
2019-05-21T00:18:31.253Z,14.00
2019-05-21T00:21:11.046Z,13.80
2019-05-21T00:23:51.189Z,13.90
2019-05-21T00:26:31.130Z,13.90
2019-05-21T00:29:11.250Z,14.00
2019-05-21T00:31:51.232Z,14.00
2019-05-21T00:34:43.199Z,13.90
2019-05-21T00:37:19.186Z,14.00
2019-05-21T00:39:59.549Z,13.90
2019-05-21T00:42:40.046Z,13.90
2019-05-21T00:45:20.171Z,13.90
2019-05-21T00:48:00.050Z,13.90
2019-05-21T00:50:40.366Z,13.90
2019-05-21T00:53:20.172Z,13.90
2019-05-21T00:56:00.599Z,13.90
2019-05-21T00:58:40.793Z,13.90
2019-05-21T01:01:20.394Z,13.80
2019-05-21T01:04:00.497Z,13.90
2019-05-21T01:06:40.802Z,13.80
2019-05-21T01:09:20.409Z,13.80
2019-05-21T01:12:00.271Z,13.80
2019-05-21T01:14:40.503Z,13.90
2019-05-21T01:17:20.600Z,13.90
2019-05-21T01:20:00.707Z,13.80
2019-05-21T01:22:41.513Z,13.80
2019-05-21T01:25:21.295Z,13.80
2019-05-21T01:28:01.714Z,13.90
2019-05-21T01:30:42.251Z,13.80
2019-05-21T01:33:22.705Z,13.80
2019-05-21T01:36:02.690Z,13.80
2019-05-21T01:38:42.977Z,13.80
2019-05-21T01:41:22.745Z,13.80
2019-05-21T01:44:02.733Z,13.80
2019-05-21T01:46:43.062Z,13.80
2019-05-21T01:49:23.032Z,13.80
2019-05-21T01:52:03.915Z,13.80
2019-05-21T01:54:43.914Z,13.80
2019-05-21T01:57:24.213Z,13.80
2019-05-21T02:00:04.326Z,13.70
2019-05-21T02:02:44.162Z,13.80
2019-05-21T02:05:32.690Z,13.90
2019-05-21T02:08:06.754Z,13.80
2019-05-21T02:10:47.182Z,13.80
2019-05-21T02:13:27.067Z,13.80
2019-05-21T02:16:07.329Z,13.80
2019-05-21T02:18:47.574Z,13.80
2019-05-21T02:21:27.590Z,13.80
2019-05-21T02:24:07.198Z,13.70
2019-05-21T02:26:47.490Z,13.70
2019-05-21T02:29:28.746Z,13.70
2019-05-21T02:32:08.519Z,13.70
2019-05-21T02:34:49.034Z,13.80
2019-05-21T02:37:29.115Z,13.70
2019-05-21T02:40:09.097Z,13.60
2019-05-21T02:42:48.830Z,13.60
2019-05-21T02:45:29.348Z,13.60
2019-05-21T02:48:09.019Z,13.70
2019-05-21T02:50:49.382Z,13.70
2019-05-21T02:53:34.178Z,13.70
2019-05-21T02:56:11.502Z,13.70
2019-05-21T02:58:54.300Z,13.60
2019-05-21T03:04:53.046Z,13.60
2019-05-21T03:07:32.988Z,13.70
2019-05-21T03:10:12.639Z,13.70
2019-05-21T03:12:53.106Z,13.70
2019-05-21T03:15:33.115Z,13.60
2019-05-21T03:18:13.251Z,13.50
2019-05-21T03:20:53.482Z,13.60
2019-05-21T03:23:33.105Z,13.60
2019-05-21T03:26:12.919Z,13.40
2019-05-21T03:28:53.346Z,13.50
2019-05-21T03:31:33.911Z,13.50
2019-05-21T03:34:15.343Z,13.50
2019-05-21T03:36:56.256Z,13.50
2019-05-21T03:39:36.512Z,13.60
2019-05-21T03:42:16.341Z,13.60
2019-05-21T03:45:00.527Z,13.60
2019-05-21T03:47:38.417Z,13.50
2019-05-21T03:50:18.455Z,13.60
2019-05-21T03:52:58.610Z,13.50
2019-05-21T03:55:38.326Z,13.60
2019-05-21T03:58:18.519Z,13.50
2019-05-21T04:00:58.571Z,13.50
2019-05-21T04:03:38.703Z,13.40
2019-05-21T04:06:18.847Z,13.40
2019-05-21T04:08:59.058Z,13.30
2019-05-21T04:11:40.834Z,13.40
2019-05-21T04:14:40.422Z,13.20
2019-05-21T04:20:34.622Z,13.30
2019-05-21T04:23:15.535Z,13.20
2019-05-21T04:25:55.607Z,13.30
2019-05-21T04:28:36.100Z,13.30
2019-05-21T04:31:15.945Z,13.30
2019-05-21T04:33:56.629Z,13.30
2019-05-21T04:36:37.369Z,13.30
2019-05-21T04:39:17.027Z,13.30
2019-05-21T04:41:57.787Z,13.30
2019-05-21T04:44:25.526Z,13.20
2019-05-21T04:47:12.365Z,13.20
2019-05-21T04:49:52.697Z,13.30
2019-05-21T04:52:32.695Z,13.20
2019-05-21T04:55:12.693Z,13.20
2019-05-21T04:57:52.499Z,13.10
2019-05-21T05:00:32.801Z,13.20
2019-05-21T05:03:13.583Z,13.20
2019-05-21T05:05:53.610Z,13.20
2019-05-21T05:08:33.697Z,13.30
2019-05-21T05:11:01.439Z,13.20
2019-05-21T05:13:48.159Z,13.20
2019-05-21T05:16:28.727Z,13.20
2019-05-21T05:19:08.965Z,13.30
2019-05-21T05:21:48.869Z,13.30
2019-05-21T05:24:28.891Z,13.30
2019-05-21T05:27:08.973Z,13.20
2019-05-21T05:29:49.342Z,13.20
2019-05-21T05:32:29.110Z,13.30
2019-05-21T05:35:10.706Z,13.20
2019-05-21T05:37:51.350Z,13.30
2019-05-21T05:40:31.452Z,13.30
2019-05-21T05:43:11.804Z,13.30
2019-05-21T05:45:51.828Z,13.30
2019-05-21T05:48:34.206Z,13.20
2019-05-21T05:51:14.461Z,13.30
2019-05-21T05:53:57.839Z,13.30
2019-05-21T05:56:37.427Z,13.20
2019-05-21T05:59:17.735Z,13.20
2019-05-21T06:01:58.000Z,13.10
2019-05-21T06:04:37.711Z,13.10
2019-05-21T06:07:17.702Z,13.10
2019-05-21T06:09:58.130Z,13.10
2019-05-21T06:12:37.833Z,13.10
2019-05-21T06:15:18.055Z,13.20
2019-05-21T06:17:57.964Z,13.10
2019-05-21T06:20:37.902Z,13.20
2019-05-21T06:23:18.228Z,13.20
2019-05-21T06:25:58.724Z,13.10
2019-05-21T06:28:38.509Z,13.00
2019-05-21T06:31:18.933Z,13.00
2019-05-21T06:33:59.427Z,13.00
2019-05-21T06:36:39.463Z,12.90
2019-05-21T06:39:19.158Z,13.00
2019-05-21T06:41:59.578Z,13.00
2019-05-21T06:44:39.441Z,13.00
2019-05-21T06:47:19.791Z,13.10
2019-05-21T06:50:00.120Z,13.00
2019-05-21T06:52:40.191Z,13.00
2019-05-21T06:55:20.301Z,13.10
2019-05-21T06:58:00.447Z,13.20
2019-05-21T07:00:40.492Z,13.20
2019-05-21T07:03:20.335Z,13.30
2019-05-21T07:06:00.471Z,13.30
2019-05-21T07:08:40.704Z,13.30
2019-05-21T07:11:20.748Z,13.30
2019-05-21T07:14:00.720Z,13.20
2019-05-21T07:16:40.834Z,13.20
2019-05-21T07:19:20.779Z,13.30
2019-05-21T07:22:12.198Z,13.30
2019-05-21T07:24:42.182Z,13.40
2019-05-21T07:27:22.714Z,13.40
2019-05-21T07:30:02.537Z,13.40
2019-05-21T07:32:42.827Z,13.30
2019-05-21T07:35:22.693Z,13.40
2019-05-21T07:38:02.954Z,13.30
2019-05-21T07:40:43.063Z,13.20
2019-05-21T07:43:23.134Z,13.20
2019-05-21T07:46:03.231Z,13.20
2019-05-21T07:48:43.220Z,13.30
2019-05-21T07:51:10.601Z,13.20
2019-05-21T07:53:57.306Z,13.30
2019-05-21T07:56:37.021Z,13.20
2019-05-21T07:59:16.958Z,13.30
2019-05-21T08:01:57.423Z,13.30
2019-05-21T08:04:38.460Z,13.30
2019-05-21T08:07:18.631Z,13.30
2019-05-21T08:09:58.964Z,13.30
2019-05-21T08:12:40.026Z,13.20
2019-05-21T08:15:20.088Z,13.40
2019-05-21T08:18:00.006Z,13.50
2019-05-21T08:20:39.717Z,13.50
2019-05-21T08:23:19.318Z,13.50
2019-05-21T08:25:59.176Z,13.60
2019-05-21T08:28:39.349Z,13.60
2019-05-21T08:31:19.542Z,13.40
2019-05-21T08:33:59.870Z,13.50
2019-05-21T08:36:39.566Z,13.50
2019-05-21T08:39:28.323Z,13.60
2019-05-21T08:42:01.986Z,13.60
2019-05-21T08:44:42.328Z,13.60
2019-05-21T08:47:22.481Z,13.70
2019-05-21T08:50:02.573Z,13.70
2019-05-21T08:52:42.644Z,13.70
2019-05-21T08:55:23.066Z,13.70
2019-05-21T09:00:46.070Z,13.90
2019-05-21T09:03:13.834Z,13.80
2019-05-21T09:03:26.290Z,13.90
2019-05-21T09:06:06.554Z,14.00
2019-05-21T09:08:48.598Z,14.00
2019-05-21T09:11:29.476Z,14.00
2019-05-21T09:14:10.556Z,14.10
2019-05-21T09:16:50.278Z,13.90
2019-05-21T09:19:30.375Z,13.90
2019-05-21T09:22:10.540Z,13.90
2019-05-21T09:24:50.961Z,13.80
2019-05-21T09:27:31.014Z,13.90
2019-05-21T09:30:11.059Z,13.90
2019-05-21T09:32:51.245Z,13.90
2019-05-21T09:35:31.274Z,13.90
2019-05-21T09:38:11.645Z,13.90
2019-05-21T09:40:52.260Z,13.80
2019-05-21T09:43:33.018Z,13.80
2019-05-21T09:46:13.075Z,14.00
2019-05-21T09:48:56.085Z,13.80
2019-05-21T09:51:35.406Z,13.80
2019-05-21T09:54:15.428Z,13.80
2019-05-21T09:56:55.728Z,13.80
2019-05-21T09:59:55.328Z,13.80
2019-05-21T10:02:35.016Z,13.90
2019-05-21T10:05:15.182Z,13.90
2019-05-21T10:07:55.429Z,14.00
2019-05-21T10:10:35.381Z,14.10
2019-05-21T10:13:16.062Z,14.10
2019-05-21T10:16:00.873Z,14.20
2019-05-21T10:18:37.831Z,14.20
2019-05-21T10:21:17.888Z,14.20
2019-05-21T10:23:57.943Z,14.10
2019-05-21T10:26:38.271Z,14.00
2019-05-21T10:29:18.355Z,14.00
2019-05-21T10:31:58.712Z,14.00
2019-05-21T10:34:40.141Z,13.90
2019-05-21T10:37:20.079Z,13.80
2019-05-21T10:40:00.044Z,13.90
2019-05-21T10:42:39.969Z,13.80
2019-05-21T10:45:20.102Z,13.90
2019-05-21T10:47:59.792Z,13.90
2019-05-21T10:50:39.889Z,13.90
2019-05-21T10:53:19.862Z,13.90
2019-05-21T10:56:00.162Z,13.90
2019-05-21T10:58:40.059Z,14.00
2019-05-21T11:01:40.036Z,14.00
2019-05-21T11:07:49.131Z,13.90
2019-05-21T11:10:28.686Z,13.90
2019-05-21T11:13:09.082Z,14.00
2019-05-21T11:15:49.141Z,13.90
2019-05-21T11:18:28.764Z,14.10
2019-05-21T11:21:08.731Z,14.10
2019-05-21T11:23:48.959Z,14.20
2019-05-21T11:26:30.350Z,14.20
2019-05-21T11:29:10.918Z,14.30
2019-05-21T11:31:57.258Z,14.20
2019-05-21T11:34:33.027Z,14.20
2019-05-21T11:37:13.027Z,14.20
2019-05-21T11:39:53.443Z,14.30
2019-05-21T11:42:33.690Z,14.30
2019-05-21T11:45:30.705Z,14.30
2019-05-21T11:47:55.620Z,14.30
2019-05-21T11:50:36.833Z,14.30
2019-05-21T11:53:16.950Z,14.30
2019-05-21T11:55:57.418Z,14.20
2019-05-21T11:58:39.868Z,14.20
2019-05-21T12:01:19.762Z,14.20
2019-05-21T12:03:59.399Z,14.30
2019-05-21T12:06:39.316Z,14.30
2019-05-21T12:09:19.894Z,14.20
2019-05-21T12:12:01.273Z,14.20
2019-05-21T12:14:40.771Z,14.20
2019-05-21T12:17:20.806Z,14.20
2019-05-21T12:20:01.150Z,14.10
2019-05-21T12:22:41.004Z,14.20
2019-05-21T12:25:21.255Z,14.20
2019-05-21T12:28:01.565Z,14.10
2019-05-21T12:30:41.508Z,14.10
2019-05-21T12:33:21.918Z,14.10
2019-05-21T12:36:03.098Z,14.10
2019-05-21T12:38:43.186Z,14.10
2019-05-21T12:41:23.078Z,14.00
2019-05-21T12:44:03.168Z,14.10
2019-05-21T12:46:43.502Z,14.00
2019-05-21T12:49:23.318Z,13.90
2019-05-21T12:52:03.633Z,14.00
2019-05-21T12:54:43.755Z,13.90
2019-05-21T12:57:24.042Z,14.00
2019-05-21T13:00:04.035Z,13.90
2019-05-21T13:02:43.921Z,13.80
2019-05-21T13:05:24.290Z,13.80
2019-05-21T13:08:04.087Z,13.90
2019-05-21T13:10:44.401Z,13.80
2019-05-21T13:13:24.323Z,14.00
2019-05-21T13:16:04.426Z,13.90
2019-05-21T13:18:45.020Z,13.90
2019-05-21T13:21:24.967Z,13.90
2019-05-21T13:24:05.766Z,14.00
2019-05-21T13:26:45.759Z,14.10
2019-05-21T13:29:25.796Z,14.10
2019-05-21T13:32:06.248Z,14.10
2019-05-21T13:34:47.132Z,14.10
2019-05-21T13:37:29.281Z,14.10
2019-05-21T13:40:09.105Z,14.10
2019-05-21T13:42:49.512Z,14.10
2019-05-21T13:45:29.431Z,14.10
2019-05-21T13:48:09.466Z,14.10
2019-05-21T13:50:49.231Z,14.10
2019-05-21T13:53:29.686Z,14.10
2019-05-21T13:56:09.543Z,14.20
2019-05-21T13:58:49.926Z,14.20
2019-05-21T14:01:40.310Z,14.10
2019-05-21T14:04:11.838Z,14.10
2019-05-21T14:06:52.142Z,14.10
2019-05-21T14:09:32.630Z,14.10
2019-05-21T14:12:14.181Z,14.10
2019-05-21T14:14:54.180Z,14.10
2019-05-21T14:17:34.477Z,14.10
2019-05-21T14:20:14.589Z,14.10
2019-05-21T14:22:54.897Z,14.10
2019-05-21T14:25:35.297Z,14.10
2019-05-21T14:28:15.467Z,14.10
2019-05-21T14:30:55.624Z,14.00
2019-05-21T14:33:35.977Z,14.00
2019-05-21T14:36:16.092Z,13.90
2019-05-21T14:38:44.918Z,14.00
2019-05-21T14:41:25.508Z,14.00
2019-05-21T14:44:06.237Z,14.00
2019-05-21T14:46:45.886Z,14.00
2019-05-21T15:40:24.085Z,13.90
2019-05-21T15:43:04.674Z,13.90
2019-05-21T15:45:44.665Z,13.90
2019-05-21T15:48:26.623Z,13.80
2019-05-21T15:51:06.484Z,13.80
2019-05-21T15:53:46.984Z,13.80
2019-05-21T15:56:26.843Z,13.80
2019-05-21T15:59:07.062Z,13.80
2019-05-21T16:01:46.983Z,13.80
2019-05-21T16:04:27.329Z,13.80
2019-05-21T16:07:07.328Z,13.70
2019-05-21T16:09:47.386Z,13.70
2019-05-21T16:12:27.358Z,13.80
2019-05-21T16:15:07.694Z,13.70
2019-05-21T16:17:47.601Z,13.80
2019-05-21T16:20:28.287Z,13.70
2019-05-21T16:23:08.724Z,13.70
2019-05-21T16:25:48.498Z,13.70
2019-05-21T16:28:28.828Z,13.70
2019-05-21T16:31:08.790Z,13.70
2019-05-21T16:33:48.870Z,13.70
2019-05-21T16:36:29.219Z,13.70
2019-05-21T16:39:09.095Z,13.70
2019-05-21T16:41:49.350Z,13.70
2019-05-21T16:44:29.533Z,13.60
2019-05-21T16:47:09.435Z,13.60
2019-05-21T16:49:49.567Z,13.70
2019-05-21T16:52:29.386Z,13.60
2019-05-21T16:55:09.624Z,13.60
2019-05-21T16:57:49.857Z,13.60
2019-05-21T17:00:30.034Z,13.60
2019-05-21T17:03:10.099Z,13.50
2019-05-21T17:05:50.054Z,13.60
2019-05-21T17:08:30.098Z,13.50
2019-05-21T17:11:10.314Z,13.50
2019-05-21T17:13:50.670Z,13.50
2019-05-21T17:16:30.598Z,13.50
2019-05-21T17:19:10.122Z,13.50
2019-05-21T17:21:49.871Z,13.50
2019-05-21T17:24:30.081Z,13.50
2019-05-21T17:27:11.234Z,13.60
2019-05-21T17:29:52.617Z,13.50
2019-05-21T17:38:41.166Z,13.30
2019-05-21T17:41:22.710Z,13.40
2019-05-21T17:44:03.084Z,13.40
2019-05-21T17:46:48.329Z,13.30
2019-05-21T17:49:31.342Z,13.40
2019-05-21T17:52:12.174Z,13.40
2019-05-21T17:57:42.040Z,13.40
2019-05-21T18:06:44.863Z,13.30
2019-05-21T18:09:28.294Z,13.40
2019-05-21T18:12:12.462Z,13.40
2019-05-21T18:14:52.673Z,13.40
2019-05-21T18:17:35.338Z,13.30
2019-05-21T18:20:17.749Z,13.40
2019-05-21T18:22:59.007Z,13.40
2019-05-21T18:25:40.622Z,13.30
2019-05-21T18:28:22.854Z,13.30
2019-05-21T18:31:05.688Z,13.30
2019-05-21T18:33:46.972Z,13.30
2019-05-21T18:39:18.570Z,13.30
2019-05-21T18:42:20.727Z,13.30
2019-05-21T18:45:02.159Z,13.30
2019-05-21T18:47:32.253Z,13.30
2019-05-21T18:50:02.064Z,13.30
2019-05-21T18:52:33.013Z,13.30
2019-05-21T18:55:01.020Z,13.30
2019-05-21T18:57:34.348Z,13.20
2019-05-21T19:00:01.830Z,13.10
2019-05-21T19:02:29.759Z,13.20
2019-05-21T19:04:57.223Z,13.20
2019-05-21T19:07:24.459Z,13.10
2019-05-21T19:09:52.253Z,13.10
2019-05-21T19:12:20.782Z,13.10
2019-05-21T19:14:48.256Z,13.20
2019-05-21T19:17:16.215Z,13.20
2019-05-21T19:19:44.065Z,13.20
2019-05-21T19:22:11.718Z,13.20
2019-05-21T19:24:39.594Z,13.20
2019-05-21T19:27:07.356Z,13.10
2019-05-21T19:29:35.259Z,13.20
2019-05-21T19:32:03.662Z,13.20
2019-05-21T19:34:31.589Z,13.20
2019-05-21T19:36:59.589Z,13.10
2019-05-21T19:39:28.098Z,13.20
2019-05-21T19:41:55.833Z,13.20
2019-05-21T19:44:23.885Z,13.20
2019-05-21T19:46:51.381Z,13.20
2019-05-21T19:49:19.323Z,13.10
2019-05-21T19:51:46.989Z,13.10
2019-05-21T19:54:15.763Z,13.10
2019-05-21T20:01:09.385Z,13.00
2019-05-21T20:03:37.822Z,12.90
2019-05-21T20:06:06.375Z,12.90
2019-05-21T20:08:34.804Z,12.90
2019-05-21T20:11:03.222Z,12.90
2019-05-21T20:13:32.902Z,12.90
2019-05-21T20:16:02.598Z,12.90
2019-05-21T20:18:30.707Z,12.90
2019-05-21T20:20:59.921Z,12.90
2019-05-21T20:23:27.645Z,12.90
2019-05-21T20:25:56.991Z,12.90
2019-05-21T20:28:25.268Z,12.90
2019-05-21T20:30:52.701Z,13.00
2019-05-21T20:33:20.738Z,12.90
2019-05-21T20:35:48.926Z,13.00
2019-05-21T20:38:17.943Z,13.00
2019-05-21T20:40:46.062Z,13.00
2019-05-21T20:43:14.465Z,13.10
2019-05-21T20:45:45.162Z,13.00
2019-05-21T20:48:15.906Z,13.00
2019-05-21T20:50:44.206Z,13.00
2019-05-21T20:53:12.994Z,13.10
2019-05-21T20:55:40.804Z,13.00
2019-05-21T20:58:09.316Z,13.00
2019-05-21T21:00:40.292Z,13.10
2019-05-21T21:03:10.237Z,13.00
2019-05-21T21:05:37.538Z,12.90
2019-05-21T21:08:07.331Z,13.00
2019-05-21T21:10:34.970Z,12.90
2019-05-21T21:13:02.745Z,12.90
2019-05-21T21:15:30.727Z,12.90
2019-05-21T21:17:58.871Z,12.80
2019-05-21T21:20:26.693Z,12.90
2019-05-21T21:22:54.537Z,12.90
2019-05-21T21:25:23.708Z,12.90
2019-05-21T21:27:51.674Z,13.00
2019-05-21T21:30:19.197Z,13.00
2019-05-21T21:32:47.453Z,12.90
2019-05-21T21:35:15.922Z,13.00
2019-05-21T21:37:43.370Z,12.90
2019-05-21T21:40:13.840Z,12.70
2019-05-21T21:42:42.269Z,12.80
2019-05-21T21:45:10.008Z,12.90
2019-05-21T21:47:38.062Z,12.80
2019-05-21T21:50:06.330Z,12.80
2019-05-21T21:52:34.304Z,12.80
2019-05-21T21:55:02.059Z,12.80
2019-05-21T21:57:29.738Z,12.80
2019-05-21T21:59:57.708Z,12.80
2019-05-21T22:02:27.965Z,12.80
2019-05-21T22:04:56.932Z,12.70
2019-05-21T22:07:25.887Z,12.70
2019-05-21T22:09:53.313Z,12.80
2019-05-21T22:12:21.960Z,12.80
2019-05-21T22:14:57.426Z,12.80
2019-05-21T22:17:24.974Z,12.80
2019-05-21T22:19:52.854Z,12.80
2019-05-21T22:22:20.517Z,12.80
2019-05-21T22:24:48.958Z,12.70
2019-05-21T22:27:17.044Z,12.70
2019-05-21T22:29:44.389Z,12.80
2019-05-21T22:32:11.851Z,12.80
2019-05-21T22:34:40.109Z,12.80
2019-05-21T22:37:11.409Z,12.80
2019-05-21T22:39:39.978Z,12.80
2019-05-21T22:42:09.290Z,12.80
2019-05-21T22:44:37.169Z,12.70
2019-05-21T22:47:05.097Z,12.70
2019-05-21T22:49:34.140Z,12.70
2019-05-21T22:52:01.964Z,12.70
2019-05-21T22:54:29.701Z,12.60
2019-05-21T22:56:57.592Z,12.70
2019-05-21T22:59:25.302Z,12.70
2019-05-21T23:01:55.035Z,12.60
2019-05-21T23:04:22.913Z,12.60
2019-05-21T23:06:53.042Z,12.70
2019-05-21T23:09:20.903Z,12.60
2019-05-21T23:11:48.110Z,12.60
2019-05-21T23:14:15.926Z,12.60
2019-05-21T23:16:45.649Z,12.60
2019-05-21T23:19:16.552Z,12.50
2019-05-21T23:21:48.797Z,12.50
2019-05-21T23:24:21.722Z,12.50
2019-05-21T23:26:49.439Z,12.60
2019-05-21T23:29:18.069Z,12.40
2019-05-21T23:31:45.991Z,12.40
2019-05-21T23:34:14.395Z,12.50
2019-05-21T23:36:41.742Z,12.50
2019-05-21T23:39:12.838Z,12.60
2019-05-21T23:41:41.917Z,12.60
2019-05-21T23:44:09.802Z,12.60
2019-05-21T23:46:38.224Z,12.60
2019-05-21T23:49:06.278Z,12.50
2019-05-21T23:51:33.605Z,12.50
2019-05-21T23:54:01.585Z,12.50
2019-05-21T23:56:29.210Z,12.50
2019-05-21T23:58:57.186Z,12.60
